Time;durP1;ratioP1;P1;durP2;ratioP2;P2;SDS_P1;SDS_P2;PMS_P1;PMS_P2;Temp;Humidity;BMP_temperature;BMP_pressure;BME280_temperature;BME280_humidity;BME280_pressure;Samples;Min_cycle;Max_cycle;Signal;HPM_P1;HPM_P2
2024/01/28 00:01:36;;;;;;;7.43;2.00;;;;;;;-1.84;100.00;102402.47;4965858;28;20282;-71
2024/01/28 00:04:05;;;;;;;7.00;1.90;;;;;;;-1.74;100.00;102401.66;4961227;28;20240;-73
2024/01/28 00:06:32;;;;;;;7.30;1.77;;;;;;;-1.92;100.00;102385.25;4968836;28;20213;-71
2024/01/28 00:08:59;;;;;;;4.30;2.07;;;;;;;-2.04;100.00;102390.19;4963892;28;20641;-71
2024/01/28 00:11:25;;;;;;;10.43;3.97;;;;;;;-2.12;100.00;102379.84;4968156;28;20205;-71
2024/01/28 00:13:51;;;;;;;10.57;4.57;;;;;;;-2.08;100.00;102380.28;4967618;28;20219;-71
2024/01/28 00:16:19;;;;;;;11.47;4.33;;;;;;;-1.98;100.00;102379.50;4962553;28;20689;-71
2024/01/28 00:18:46;;;;;;;6.00;2.03;;;;;;;-1.87;100.00;102378.81;4964588;28;20209;-72
2024/01/28 00:21:13;;;;;;;1.73;1.40;;;;;;;-1.92;100.00;102380.06;4962423;28;20205;-71
2024/01/28 00:23:39;;;;;;;4.40;2.00;;;;;;;-1.92;100.00;102372.28;4968597;28;20219;-71
2024/01/28 00:26:07;;;;;;;2.67;1.93;;;;;;;-1.97;100.00;102370.94;4963624;28;20194;-71
2024/01/28 00:28:33;;;;;;;5.00;1.90;;;;;;;-1.81;100.00;102357.72;4969880;28;20265;-71
2024/01/28 00:31:00;;;;;;;9.33;4.50;;;;;;;-1.76;100.00;102369.44;4968665;28;20205;-72
2024/01/28 00:33:26;;;;;;;10.40;4.40;;;;;;;-1.91;100.00;102366.31;4970024;28;20483;-71
2024/01/28 00:35:52;;;;;;;10.37;4.17;;;;;;;-2.03;100.00;102362.53;4971088;28;20203;-71
2024/01/28 00:38:19;;;;;;;8.27;2.37;;;;;;;-2.15;100.00;102359.69;4970247;28;20289;-71
2024/01/28 00:40:45;;;;;;;5.33;1.80;;;;;;;-2.24;100.00;102361.41;4969629;28;20197;-71
2024/01/28 00:43:12;;;;;;;2.33;1.47;;;;;;;-2.40;100.00;102351.25;4971473;28;20231;-71
2024/01/28 00:45:39;;;;;;;7.77;2.33;;;;;;;-2.32;100.00;102354.59;4969787;28;20264;-72
2024/01/28 00:48:06;;;;;;;7.00;2.30;;;;;;;-2.29;100.00;102355.78;4966416;28;20206;-72
2024/01/28 00:50:32;;;;;;;2.97;1.70;;;;;;;-2.35;100.00;102337.06;4984112;28;20513;-71
2024/01/28 00:52:59;;;;;;;17.67;2.00;;;;;;;-2.40;100.00;102345.13;4971878;28;20276;-71
2024/01/28 00:55:25;;;;;;;4.97;2.53;;;;;;;-2.50;100.00;102342.41;4968857;28;20198;-71
2024/01/28 00:57:52;;;;;;;2.57;1.93;;;;;;;-2.61;100.00;102328.44;4971950;28;20723;-71
2024/01/28 01:00:18;;;;;;;4.27;2.27;;;;;;;-2.48;100.00;102330.50;4968605;28;20242;-71
2024/01/28 01:02:45;;;;;;;2.67;1.57;;;;;;;-2.45;100.00;102329.13;4972228;28;20822;-71
2024/01/28 01:05:11;;;;;;;4.97;2.00;;;;;;;-2.49;100.00;102320.91;4970246;28;20616;-72
2024/01/28 01:07:37;;;;;;;5.63;1.67;;;;;;;-2.58;100.00;102329.63;4968293;28;20554;-72
2024/01/28 01:10:04;;;;;;;3.43;1.27;;;;;;;-2.65;100.00;102323.72;4972567;28;20810;-71
2024/01/28 01:12:31;;;;;;;6.77;2.10;;;;;;;-2.70;100.00;102327.53;4966872;28;20229;-72
2024/01/28 01:14:57;;;;;;;6.83;3.63;;;;;;;-2.75;100.00;102316.72;4968620;28;20197;-71
2024/01/28 01:17:24;;;;;;;7.97;3.70;;;;;;;-2.74;100.00;102322.81;4970329;28;20201;-71
2024/01/28 01:19:50;;;;;;;2.27;1.10;;;;;;;-2.81;100.00;102320.38;4970421;28;20661;-71
2024/01/28 01:22:17;;;;;;;4.87;2.03;;;;;;;-2.87;100.00;102318.09;4961621;28;20223;-70
2024/01/28 01:24:43;;;;;;;9.93;4.20;;;;;;;-2.92;100.00;102319.34;4967784;28;20317;-70
2024/01/28 01:27:10;;;;;;;9.93;3.60;;;;;;;-2.92;100.00;102312.47;4969673;28;20233;-70
2024/01/28 01:29:36;;;;;;;12.93;3.83;;;;;;;-2.93;100.00;102308.06;4963502;28;20654;-70
2024/01/28 01:32:03;;;;;;;10.13;3.43;;;;;;;-2.91;100.00;102311.72;4968330;28;20280;-70
2024/01/28 01:34:30;;;;;;;10.23;3.53;;;;;;;-2.97;100.00;102311.13;4963698;28;20208;-70
2024/01/28 01:36:56;;;;;;;11.40;3.97;;;;;;;-2.95;100.00;102312.19;4968570;28;20228;-70
2024/01/28 01:39:23;;;;;;;9.13;1.70;;;;;;;-2.96;100.00;102302.56;4970794;28;20308;-70
2024/01/28 01:41:49;;;;;;;1.87;1.03;;;;;;;-2.88;100.00;102308.50;4967805;28;20195;-70
2024/01/28 01:44:16;;;;;;;3.97;1.43;;;;;;;-2.87;100.00;102307.75;4967940;28;20690;-71
2024/01/28 01:46:44;;;;;;;3.60;1.57;;;;;;;-2.84;100.00;102310.63;4968215;28;22066;-70
2024/01/28 01:49:11;;;;;;;4.30;1.87;;;;;;;-2.77;100.00;102304.38;4968199;28;20201;-70
2024/01/28 01:51:39;;;;;;;2.50;1.70;;;;;;;-2.79;100.00;102306.84;4966756;28;20217;-70
2024/01/28 01:54:07;;;;;;;9.10;3.63;;;;;;;-2.73;100.00;102307.41;4965593;28;20194;-70
2024/01/28 01:56:34;;;;;;;10.10;3.30;;;;;;;-2.74;100.00;102309.88;4965344;28;20265;-70
2024/01/28 01:59:02;;;;;;;8.33;3.50;;;;;;;-2.80;100.00;102310.19;4969849;28;20285;-70
2024/01/28 02:01:29;;;;;;;10.03;3.50;;;;;;;-2.88;100.00;102303.31;4967330;28;20198;-70
2024/01/28 02:03:57;;;;;;;8.17;3.73;;;;;;;-2.93;100.00;102291.59;4967959;28;20233;-71
2024/01/28 02:06:26;;;;;;;8.53;3.30;;;;;;;-2.94;100.00;102292.34;4967566;28;20200;-71
2024/01/28 02:08:54;;;;;;;3.20;1.30;;;;;;;-2.89;100.00;102297.22;4971576;28;20202;-70
2024/01/28 02:11:22;;;;;;;3.40;1.30;;;;;;;-2.68;100.00;102300.09;4970134;28;20229;-70
2024/01/28 02:13:48;;;;;;;9.33;3.70;;;;;;;-2.85;100.00;102296.75;4966439;28;20209;-70
2024/01/28 02:16:15;;;;;;;4.70;2.00;;;;;;;-2.94;100.00;102297.53;4966775;28;20193;-71
2024/01/28 02:18:42;;;;;;;8.43;3.40;;;;;;;-2.99;100.00;102291.91;4967012;28;20205;-70
2024/01/28 02:21:08;;;;;;;1.50;1.13;;;;;;;-3.09;100.00;102296.06;4968274;28;20203;-70
2024/01/28 02:23:35;;;;;;;3.20;1.27;;;;;;;-3.14;100.00;102282.66;4967039;28;20711;-70
2024/01/28 02:26:01;;;;;;;7.70;3.33;;;;;;;-2.97;100.00;102287.78;4962272;28;20202;-70
2024/01/28 02:28:28;;;;;;;4.83;1.87;;;;;;;-2.97;100.00;102285.19;4968987;28;20198;-70
2024/01/28 02:30:54;;;;;;;2.67;1.33;;;;;;;-2.91;100.00;102285.78;4966159;28;20198;-70
2024/01/28 02:33:20;;;;;;;1.27;1.13;;;;;;;-2.85;100.00;102283.78;4963687;28;20229;-70
2024/01/28 02:35:47;;;;;;;8.13;3.83;;;;;;;-2.87;100.00;102279.22;4966325;28;20205;-70
2024/01/28 02:38:13;;;;;;;9.33;3.83;;;;;;;-2.81;100.00;102274.63;4967307;28;20208;-71
2024/01/28 02:40:40;;;;;;;3.80;1.33;;;;;;;-2.77;100.00;102278.47;4966853;28;20753;-70
2024/01/28 02:43:07;;;;;;;1.97;1.33;;;;;;;-2.66;100.00;102276.13;4963908;28;20324;-70
2024/01/28 02:45:33;;;;;;;8.73;3.43;;;;;;;-2.63;100.00;102266.03;4968186;28;20198;-71
2024/01/28 02:48:00;;;;;;;4.37;1.93;;;;;;;-2.68;100.00;102272.47;4961578;28;20198;-70
2024/01/28 02:50:27;;;;;;;4.90;1.77;;;;;;;-2.73;100.00;102265.94;4963024;28;20250;-70
2024/01/28 02:52:53;;;;;;;10.87;4.57;;;;;;;-2.70;100.00;102273.09;4965959;28;20765;-70
2024/01/28 02:55:20;;;;;;;9.43;4.37;;;;;;;-2.73;100.00;102275.41;4966332;28;20197;-71
2024/01/28 02:57:46;;;;;;;3.67;1.97;;;;;;;-2.84;100.00;102272.66;4964716;28;20300;-71
2024/01/28 03:00:13;;;;;;;9.60;4.40;;;;;;;-2.94;100.00;102275.13;4964062;28;20250;-71
2024/01/28 03:02:40;;;;;;;11.90;4.53;;;;;;;-3.01;100.00;102270.13;4967435;28;20643;-71
2024/01/28 03:05:09;;;;;;;12.57;4.80;;;;;;;-3.07;100.00;102272.13;4969997;28;20229;-71
2024/01/28 03:07:35;;;;;;;3.87;1.53;;;;;;;-3.10;100.00;102274.41;4970081;28;20233;-71
2024/01/28 03:10:02;;;;;;;2.30;1.70;;;;;;;-3.13;100.00;102268.03;4966550;28;20233;-71
2024/01/28 03:12:29;;;;;;;2.50;1.73;;;;;;;-3.21;100.00;102262.97;4965109;28;20221;-70
2024/01/28 03:14:55;;;;;;;7.10;3.67;;;;;;;-3.19;100.00;102261.47;4961382;28;20198;-71
2024/01/28 03:17:22;;;;;;;8.13;4.07;;;;;;;-3.24;100.00;102257.50;4961095;28;20788;-70
2024/01/28 03:19:48;;;;;;;7.90;2.93;;;;;;;-3.22;100.00;102255.97;4966639;28;20241;-71
2024/01/28 03:22:14;;;;;;;2.90;1.30;;;;;;;-3.11;100.00;102263.91;4968706;28;20221;-70
2024/01/28 03:24:41;;;;;;;2.07;1.40;;;;;;;-3.07;100.00;102256.56;4966227;28;20308;-71
2024/01/28 03:27:08;;;;;;;4.87;1.53;;;;;;;-3.17;100.00;102247.00;4961121;28;20201;-71
2024/01/28 03:29:34;;;;;;;5.53;1.97;;;;;;;-3.06;100.00;102253.22;4967300;28;20221;-71
2024/01/28 03:32:00;;;;;;;3.97;1.73;;;;;;;-3.05;100.00;102259.31;4967750;28;20249;-71
2024/01/28 03:34:27;;;;;;;8.40;1.97;;;;;;;-3.02;100.00;102259.59;4964412;28;20190;-71
2024/01/28 03:36:53;;;;;;;3.03;1.20;;;;;;;-2.96;100.00;102260.19;4965707;28;20586;-71
2024/01/28 03:39:20;;;;;;;8.27;3.70;;;;;;;-2.98;100.00;102260.06;4966307;28;20205;-71
2024/01/28 03:41:46;;;;;;;7.47;3.33;;;;;;;-2.98;100.00;102264.31;4961964;28;20677;-70
2024/01/28 03:44:19;;;;;;;8.20;3.20;;;;;;;-3.05;100.00;102267.09;4959671;28;20311;-71
2024/01/28 03:46:45;;;;;;;1.37;1.00;;;;;;;-2.97;100.00;102263.56;4963137;28;20568;-70
2024/01/28 03:49:12;;;;;;;5.80;3.30;;;;;;;-2.95;100.00;102272.38;4960854;28;20253;-71
2024/01/28 03:51:38;;;;;;;1.53;1.27;;;;;;;-2.98;100.00;102252.28;4961560;28;20213;-70
2024/01/28 03:54:05;;;;;;;2.40;2.00;;;;;;;-3.00;100.00;102265.84;4964676;28;20193;-71
2024/01/28 03:56:31;;;;;;;9.97;1.53;;;;;;;-2.99;100.00;102262.50;4968818;28;20261;-71
2024/01/28 03:58:58;;;;;;;2.10;1.53;;;;;;;-3.09;100.00;102263.28;4960730;28;20197;-71
2024/01/28 04:01:32;;;;;;;1.63;1.40;;;;;;;-3.18;100.00;102265.91;4961822;28;20202;-72
2024/01/28 04:03:59;;;;;;;10.20;3.00;;;;;;;-3.09;100.00;102262.38;4961829;28;20232;-71
2024/01/28 04:06:26;;;;;;;10.67;4.20;;;;;;;-3.05;100.00;102265.41;4960679;28;20206;-70
2024/01/28 04:08:56;;;;;;;2.63;2.10;;;;;;;-3.11;100.00;102254.44;4965676;28;20580;-70
2024/01/28 04:11:27;;;;;;;13.90;6.93;;;;;;;-3.11;100.00;102261.31;4966027;28;20213;-69
2024/01/28 04:13:55;;;;;;;19.47;7.10;;;;;;;-3.17;100.00;102256.44;4969878;28;20221;-70
2024/01/28 04:16:22;;;;;;;13.97;3.20;;;;;;;-3.18;100.00;102254.63;4966230;28;20199;-71
2024/01/28 04:18:49;;;;;;;11.77;4.57;;;;;;;-3.19;100.00;102248.53;4970450;28;20284;-71
2024/01/28 04:21:16;;;;;;;7.77;3.37;;;;;;;-3.12;100.00;102246.53;4966889;28;20205;-71
2024/01/28 04:23:43;;;;;;;22.87;9.27;;;;;;;-3.08;100.00;102254.75;4965784;28;20939;-71
2024/01/28 04:26:10;;;;;;;6.57;3.10;;;;;;;-3.09;100.00;102254.59;4965751;28;20280;-70
2024/01/28 04:28:37;;;;;;;14.07;2.47;;;;;;;-3.10;100.00;102252.78;4966690;28;20210;-71
2024/01/28 04:31:03;;;;;;;6.80;2.53;;;;;;;-3.01;100.00;102254.56;4959969;28;20214;-70
2024/01/28 04:33:30;;;;;;;6.33;2.23;;;;;;;-2.91;100.00;102251.19;4963318;28;20635;-70
2024/01/28 04:35:56;;;;;;;5.80;1.80;;;;;;;-2.87;100.00;102246.44;4970250;28;20193;-70
2024/01/28 04:38:23;;;;;;;2.20;1.20;;;;;;;-2.81;100.00;102252.97;4963994;28;20696;-71
2024/01/28 04:40:49;;;;;;;8.63;3.30;;;;;;;-2.81;100.00;102242.59;4968226;28;20193;-69
2024/01/28 04:43:20;;;;;;;8.83;3.10;;;;;;;-2.87;100.00;102230.88;4965084;28;20237;-71
2024/01/28 04:45:46;;;;;;;0.87;0.83;;;;;;;-2.79;100.00;102247.19;4971353;28;20206;-70
2024/01/28 04:48:13;;;;;;;8.10;1.93;;;;;;;-2.93;100.00;102247.53;4969105;28;20248;-71
2024/01/28 04:50:40;;;;;;;2.73;0.93;;;;;;;-3.02;100.00;102241.47;4970806;28;20202;-71
2024/01/28 04:53:06;;;;;;;2.87;1.37;;;;;;;-2.86;100.00;102245.66;4961695;28;20245;-70
2024/01/28 04:55:34;;;;;;;3.10;1.37;;;;;;;-3.01;100.00;102240.69;4961958;28;20202;-70
2024/01/28 04:58:00;;;;;;;8.27;3.67;;;;;;;-3.18;100.00;102237.41;4969110;28;20288;-70
2024/01/28 05:00:27;;;;;;;2.53;1.60;;;;;;;-3.31;100.00;102239.53;4969507;28;20236;-70
2024/01/28 05:02:55;;;;;;;2.17;1.07;;;;;;;-3.33;100.00;102233.28;4963897;28;20221;-70
2024/01/28 05:05:24;;;;;;;9.33;1.30;;;;;;;-3.39;100.00;102235.28;4968956;28;20701;-70
2024/01/28 05:07:51;;;;;;;1.87;1.33;;;;;;;-3.42;100.00;102231.47;4964118;28;20208;-69
2024/01/28 05:10:17;;;;;;;3.57;1.40;;;;;;;-3.43;100.00;102230.56;4970389;28;20208;-69
2024/01/28 05:12:47;;;;;;;7.50;3.13;;;;;;;-3.19;100.00;102235.56;4965671;28;20306;-69
2024/01/28 05:15:16;;;;;;;6.40;2.17;;;;;;;-3.27;100.00;102240.75;4966041;28;20206;-69
2024/01/28 05:17:44;;;;;;;1.70;1.37;;;;;;;-3.36;100.00;102245.03;4967980;28;20209;-69
2024/01/28 05:20:11;;;;;;;2.63;1.60;;;;;;;-3.48;100.00;102222.34;4965590;28;20197;-70
2024/01/28 05:22:38;;;;;;;4.00;1.23;;;;;;;-3.58;100.00;102222.22;4962132;28;20222;-70
2024/01/28 05:25:05;;;;;;;3.60;1.27;;;;;;;-3.57;100.00;102230.91;4967002;28;20598;-70
2024/01/28 05:27:32;;;;;;;2.47;1.13;;;;;;;-3.68;100.00;102231.50;4966043;28;20202;-70
2024/01/28 05:29:59;;;;;;;1.77;1.37;;;;;;;-3.64;100.00;102231.03;4970278;28;20202;-70
2024/01/28 05:32:26;;;;;;;1.17;1.07;;;;;;;-3.26;100.00;102245.16;4967584;28;20222;-69
2024/01/28 05:34:52;;;;;;;2.30;0.93;;;;;;;-3.05;100.00;102241.16;4968056;28;20202;-71
2024/01/28 05:37:19;;;;;;;1.53;1.17;;;;;;;-3.19;100.00;102232.06;4964324;28;20197;-70
2024/01/28 05:39:45;;;;;;;1.80;1.00;;;;;;;-3.34;100.00;102236.66;4967093;28;20209;-71
2024/01/28 05:42:12;;;;;;;2.20;1.37;;;;;;;-3.43;100.00;102235.75;4967633;28;20213;-70
2024/01/28 05:44:38;;;;;;;3.97;1.07;;;;;;;-3.49;100.00;102230.88;4969749;28;20453;-70
2024/01/28 05:47:05;;;;;;;2.33;1.23;;;;;;;-3.52;100.00;102228.00;4961531;28;20844;-71
2024/01/28 05:49:33;;;;;;;1.23;0.80;;;;;;;-3.53;100.00;102230.44;4959390;28;20206;-70
2024/01/28 05:51:59;;;;;;;6.17;3.50;;;;;;;-3.60;100.00;102220.22;4969588;28;20229;-70
2024/01/28 05:54:26;;;;;;;2.30;1.13;;;;;;;-3.63;100.00;102228.59;4967753;28;20320;-70
2024/01/28 05:56:52;;;;;;;5.80;1.30;;;;;;;-3.62;100.00;102232.09;4968659;28;20198;-71
2024/01/28 05:59:18;;;;;;;2.57;1.30;;;;;;;-3.65;100.00;102230.13;4967135;28;20205;-70
2024/01/28 06:01:45;;;;;;;7.63;3.33;;;;;;;-3.65;100.00;102237.88;4966636;28;20197;-71
2024/01/28 06:04:11;;;;;;;9.67;3.30;;;;;;;-3.70;100.00;102227.84;4966169;28;20701;-70
2024/01/28 06:06:38;;;;;;;1.70;1.00;;;;;;;-3.84;100.00;102210.94;4967562;28;20256;-71
2024/01/28 06:09:05;;;;;;;7.73;3.37;;;;;;;-3.80;100.00;102218.25;4965084;28;20202;-70
2024/01/28 06:11:31;;;;;;;2.63;1.67;;;;;;;-3.83;100.00;102218.88;4962926;28;20273;-70
2024/01/28 06:13:58;;;;;;;1.00;0.90;;;;;;;-3.45;100.00;102226.91;4959820;28;20653;-70
2024/01/28 06:16:24;;;;;;;9.37;3.90;;;;;;;-3.43;100.00;102220.22;4962669;28;20688;-70
2024/01/28 06:18:51;;;;;;;5.80;1.80;;;;;;;-3.43;100.00;102221.88;4963655;28;20198;-71
2024/01/28 06:21:17;;;;;;;2.27;1.20;;;;;;;-3.56;100.00;102220.69;4961017;28;20661;-71
2024/01/28 06:23:44;;;;;;;1.00;0.90;;;;;;;-3.65;100.00;102218.84;4964983;28;20480;-70
2024/01/28 06:26:11;;;;;;;1.33;1.23;;;;;;;-3.76;100.00;102215.19;4963835;28;20497;-71
2024/01/28 06:28:37;;;;;;;1.93;1.17;;;;;;;-3.87;100.00;102215.81;4963714;28;20233;-70
2024/01/28 06:31:04;;;;;;;7.40;3.23;;;;;;;-3.92;100.00;102209.28;4966547;28;20281;-70
2024/01/28 06:33:30;;;;;;;6.30;3.27;;;;;;;-3.94;100.00;102222.06;4964320;28;20226;-70
2024/01/28 06:35:57;;;;;;;10.93;3.03;;;;;;;-3.74;100.00;102228.28;4963112;28;20670;-70
2024/01/28 06:38:23;;;;;;;6.73;3.10;;;;;;;-3.70;100.00;102230.44;4966780;28;20560;-70
2024/01/28 06:40:49;;;;;;;7.23;3.37;;;;;;;-3.68;100.00;102223.72;4964313;28;20453;-69
2024/01/28 06:43:16;;;;;;;7.30;3.23;;;;;;;-3.62;100.00;102222.66;4965648;28;20473;-71
2024/01/28 06:45:44;;;;;;;2.87;1.00;;;;;;;-3.60;100.00;102220.22;4966802;28;20299;-70
2024/01/28 06:48:11;;;;;;;4.60;1.47;;;;;;;-3.69;100.00;102220.22;4965429;28;20252;-70
2024/01/28 06:50:37;;;;;;;4.33;1.43;;;;;;;-3.73;100.00;102224.94;4964800;28;20298;-70
2024/01/28 06:53:05;;;;;;;2.47;1.20;;;;;;;-3.79;100.00;102218.41;4966486;28;20324;-70
2024/01/28 06:55:31;;;;;;;6.67;3.07;;;;;;;-3.89;100.00;102207.91;4966837;28;20205;-70
2024/01/28 06:57:58;;;;;;;9.37;3.53;;;;;;;-3.98;100.00;102212.16;4966799;28;20543;-70
2024/01/28 07:00:24;;;;;;;7.80;3.43;;;;;;;-3.96;100.00;102220.09;4966888;28;21103;-70
2024/01/28 07:02:50;;;;;;;2.93;1.43;;;;;;;-3.95;100.00;102225.41;4967836;28;20225;-70
2024/01/28 07:05:17;;;;;;;6.83;3.20;;;;;;;-3.96;100.00;102220.09;4968145;28;20227;-70
2024/01/28 07:07:43;;;;;;;1.00;0.90;;;;;;;-3.91;100.00;102218.88;4969624;28;20464;-70
2024/01/28 07:10:10;;;;;;;11.63;3.20;;;;;;;-3.88;100.00;102219.16;4960677;28;20205;-71
2024/01/28 07:12:38;;;;;;;8.30;3.27;;;;;;;-3.85;100.00;102211.72;4970308;28;20245;-70
2024/01/28 07:15:05;;;;;;;5.33;1.80;;;;;;;-3.77;100.00;102215.97;4964750;28;20245;-71
2024/01/28 07:17:31;;;;;;;2.97;1.23;;;;;;;-3.76;100.00;102224.66;4958260;28;20578;-71
2024/01/28 07:19:58;;;;;;;1.90;0.90;;;;;;;-3.81;100.00;102213.84;4963234;28;20206;-71
2024/01/28 07:22:25;;;;;;;3.63;1.13;;;;;;;-3.76;100.00;102206.53;4961288;28;20473;-69
2024/01/28 07:24:51;;;;;;;2.50;0.90;;;;;;;-3.76;100.00;102209.13;4965451;28;20228;-70
2024/01/28 07:27:18;;;;;;;1.47;1.37;;;;;;;-3.84;100.00;102198.00;4966865;28;20225;-70
2024/01/28 07:29:44;;;;;;;0.90;0.90;;;;;;;-3.78;100.00;102212.47;4968033;28;20198;-70
2024/01/28 07:32:13;;;;;;;9.70;2.00;;;;;;;-3.75;100.00;102209.25;4965275;28;20643;-71
2024/01/28 07:34:40;;;;;;;10.93;3.87;;;;;;;-3.47;100.00;102208.63;4969193;28;20261;-71
2024/01/28 07:37:06;;;;;;;8.63;3.60;;;;;;;-3.45;100.00;102216.56;4970556;28;20276;-71
2024/01/28 07:39:33;;;;;;;4.90;3.10;;;;;;;-3.49;100.00;102205.00;4968158;28;20208;-69
2024/01/28 07:42:00;;;;;;;6.77;2.90;;;;;;;-3.47;100.00;102210.31;4970109;28;20260;-71
2024/01/28 07:44:26;;;;;;;8.13;3.50;;;;;;;-3.45;100.00;102213.06;4967945;28;20629;-71
2024/01/28 07:46:53;;;;;;;8.60;3.60;;;;;;;-3.45;100.00;102224.31;4962017;28;20193;-70
2024/01/28 07:49:20;;;;;;;8.20;3.20;;;;;;;-3.44;100.00;102214.88;4964839;28;20202;-70
2024/01/28 07:51:46;;;;;;;5.93;1.20;;;;;;;-3.20;100.00;102214.69;4962568;28;20209;-68
2024/01/28 07:54:14;;;;;;;5.67;1.57;;;;;;;-3.09;100.00;102223.50;4966536;28;20800;-71
2024/01/28 07:56:40;;;;;;;7.93;3.57;;;;;;;-2.94;100.00;102218.09;4966044;28;20595;-71
2024/01/28 07:59:07;;;;;;;8.63;4.43;;;;;;;-2.84;100.00;102209.53;4965068;28;20236;-70
2024/01/28 08:01:33;;;;;;;2.47;1.90;;;;;;;-2.71;100.00;102212.53;4962065;28;20212;-71
2024/01/28 08:04:02;;;;;;;1.77;1.40;;;;;;;-2.65;100.00;102218.31;4968148;28;20540;-70
2024/01/28 08:06:28;;;;;;;8.57;4.37;;;;;;;-2.70;100.00;102213.47;4964493;28;20221;-71
2024/01/28 08:08:55;;;;;;;7.47;4.27;;;;;;;-2.70;100.00;102222.16;4962561;28;20229;-69
2024/01/28 08:11:21;;;;;;;3.70;1.40;;;;;;;-2.59;100.00;102208.50;4966469;28;20381;-69
2024/01/28 08:13:48;;;;;;;6.80;4.40;;;;;;;-2.50;100.00;102208.47;4968847;28;20594;-69
2024/01/28 08:16:15;;;;;;;4.03;1.67;;;;;;;-2.31;100.00;102218.91;4971439;28;20191;-69
2024/01/28 08:18:41;;;;;;;6.50;2.20;;;;;;;-2.14;100.00;102223.06;4962490;28;20261;-68
2024/01/28 08:21:08;;;;;;;5.13;2.30;;;;;;;-2.08;100.00;102218.44;4964244;28;20201;-68
2024/01/28 08:23:35;;;;;;;5.13;2.30;;;;;;;-2.05;100.00;102224.81;4968822;28;20225;-69
2024/01/28 08:26:01;;;;;;;4.27;2.50;;;;;;;-2.00;100.00;102223.59;4964938;28;20213;-69
2024/01/28 08:28:27;;;;;;;4.17;2.50;;;;;;;-2.04;100.00;102229.25;4962723;28;20217;-69
2024/01/28 08:30:54;;;;;;;9.27;2.10;;;;;;;-1.99;100.00;102219.31;4960379;28;20209;-68
2024/01/28 08:33:20;;;;;;;2.77;1.90;;;;;;;-1.93;100.00;102225.97;4963735;28;20213;-68
2024/01/28 08:35:47;;;;;;;2.90;2.13;;;;;;;-1.90;100.00;102223.66;4967121;28;20245;-69
2024/01/28 08:38:13;;;;;;;3.90;2.17;;;;;;;-1.81;100.00;102217.50;4957813;28;20204;-69
2024/01/28 08:40:39;;;;;;;3.97;2.30;;;;;;;-1.76;100.00;102224.91;4964800;28;20694;-69
2024/01/28 08:43:07;;;;;;;4.27;2.77;;;;;;;-1.72;100.00;102213.13;4960438;28;20232;-69
2024/01/28 08:45:36;;;;;;;11.13;5.70;;;;;;;-1.56;100.00;102218.97;4961571;28;20252;-68
2024/01/28 08:48:03;;;;;;;6.20;2.80;;;;;;;-1.41;100.00;102224.63;4964983;28;20278;-69
2024/01/28 08:50:29;;;;;;;7.23;2.97;;;;;;;-1.35;100.00;102225.16;4966112;28;20671;-69
2024/01/28 08:52:56;;;;;;;6.17;2.67;;;;;;;-1.30;100.00;102226.50;4963438;28;20774;-70
2024/01/28 08:55:23;;;;;;;3.33;2.60;;;;;;;-1.18;100.00;102224.09;4965588;28;20284;-68
2024/01/28 08:57:49;;;;;;;7.63;3.23;;;;;;;-1.12;100.00;102225.56;4961937;28;20378;-71
2024/01/28 09:00:16;;;;;;;6.73;2.80;;;;;;;-1.10;100.00;102221.41;4968510;28;20197;-68
2024/01/28 09:02:42;;;;;;;7.30;2.80;;;;;;;-0.99;100.00;102227.56;4966243;28;20330;-67
2024/01/28 09:05:10;;;;;;;7.13;2.97;;;;;;;-0.92;100.00;102229.00;4966488;28;20597;-70
2024/01/28 09:07:36;;;;;;;5.87;3.77;;;;;;;-0.86;100.00;102229.53;4968994;28;20276;-68
2024/01/28 09:10:03;;;;;;;5.63;2.43;;;;;;;-0.71;100.00;102228.31;4959781;28;20209;-68
2024/01/28 09:12:29;;;;;;;6.00;2.93;;;;;;;-0.62;100.00;102221.31;4967860;28;20238;-68
2024/01/28 09:14:56;;;;;;;6.17;3.13;;;;;;;-0.48;100.00;102223.41;4967704;28;20675;-68
2024/01/28 09:17:22;;;;;;;7.00;3.50;;;;;;;-0.36;100.00;102228.78;4967277;28;20232;-72
2024/01/28 09:19:51;;;;;;;6.47;3.10;;;;;;;-0.27;100.00;102228.66;4967911;28;20204;-68
2024/01/28 09:22:17;;;;;;;7.30;3.63;;;;;;;-0.15;100.00;102235.81;4968674;28;20717;-68
2024/01/28 09:24:44;;;;;;;6.90;3.60;;;;;;;-0.13;100.00;102235.94;4970631;28;20230;-69
2024/01/28 09:27:10;;;;;;;8.63;3.53;;;;;;;-0.05;100.00;102235.81;4961993;28;20649;-68
2024/01/28 09:29:37;;;;;;;8.37;4.10;;;;;;;0.05;100.00;102232.31;4969512;28;20204;-69
2024/01/28 09:32:04;;;;;;;9.63;4.20;;;;;;;0.14;100.00;102230.47;4965785;28;20669;-68
2024/01/28 09:34:30;;;;;;;9.03;4.10;;;;;;;0.36;100.00;102235.78;4968921;28;20212;-69
2024/01/28 09:36:57;;;;;;;9.37;4.50;;;;;;;0.60;100.00;102236.94;4961882;28;20200;-68
2024/01/28 09:39:25;;;;;;;9.57;4.50;;;;;;;0.66;100.00;102227.00;4969490;28;20210;-69
2024/01/28 09:42:29;;;;;;;8.60;4.53;;;;;;;0.85;100.00;102234.66;4966435;28;20198;-68
2024/01/28 09:44:58;;;;;;;9.60;4.50;;;;;;;0.99;100.00;102234.06;4924838;29;20206;-68
2024/01/28 09:47:27;;;;;;;8.57;4.20;;;;;;;1.10;100.00;102220.19;4929695;29;20632;-68
2024/01/28 09:49:55;;;;;;;11.40;5.03;;;;;;;1.28;100.00;102219.84;4948339;28;20198;-67
2024/01/28 09:52:22;;;;;;;9.27;4.80;;;;;;;1.37;100.00;102218.88;4971375;28;20767;-72
2024/01/28 09:54:49;;;;;;;10.73;5.37;;;;;;;1.58;100.00;102217.94;4972053;28;20198;-69
2024/01/28 09:57:16;;;;;;;9.27;5.00;;;;;;;1.69;100.00;102216.19;4970705;28;20202;-70
2024/01/28 09:59:43;;;;;;;11.70;5.53;;;;;;;1.84;100.00;102216.47;4971024;28;20204;-70
2024/01/28 10:02:12;;;;;;;10.50;5.20;;;;;;;2.01;100.00;102210.84;4971466;28;20218;-70
2024/01/28 10:04:39;;;;;;;10.33;5.33;;;;;;;2.14;100.00;102217.91;4971827;28;20639;-70
2024/01/28 10:07:09;;;;;;;11.67;4.83;;;;;;;2.30;100.00;102212.13;4967909;28;20224;-71
2024/01/28 10:09:35;;;;;;;9.60;4.77;;;;;;;2.47;100.00;102198.66;4965983;28;20207;-70
2024/01/28 10:12:02;;;;;;;8.80;4.83;;;;;;;2.56;100.00;102195.81;4966982;28;20600;-71
2024/01/28 10:14:28;;;;;;;14.67;5.17;;;;;;;2.63;100.00;102188.50;4967370;28;20193;-70
2024/01/28 10:16:57;;;;;;;15.00;5.33;;;;;;;2.85;100.00;102182.25;4958098;28;20291;-70
2024/01/28 10:19:23;;;;;;;12.03;5.73;;;;;;;2.94;100.00;102186.44;4985526;28;20199;-69
2024/01/28 10:21:51;;;;;;;11.70;5.77;;;;;;;3.09;100.00;102176.16;4970738;28;20194;-69
2024/01/28 10:24:20;;;;;;;9.13;5.00;;;;;;;3.14;100.00;102178.31;4967970;28;20239;-69
2024/01/28 10:26:47;;;;;;;10.50;4.40;;;;;;;3.31;100.00;102168.16;4969320;28;20225;-71
2024/01/28 10:29:14;;;;;;;12.23;4.93;;;;;;;3.41;100.00;102179.38;4969242;28;20205;-70
2024/01/28 10:31:40;;;;;;;9.03;4.73;;;;;;;3.47;100.00;102163.19;4968112;28;20259;-69
2024/01/28 10:34:09;;;;;;;10.63;4.70;;;;;;;3.57;100.00;102175.22;4970875;28;20212;-69
2024/01/28 10:36:36;;;;;;;11.33;4.10;;;;;;;3.63;100.00;102171.34;4969327;28;20721;-69
2024/01/28 10:39:04;;;;;;;8.43;4.37;;;;;;;3.71;100.00;102170.16;4968739;28;20199;-70
2024/01/28 10:41:32;;;;;;;11.27;4.87;;;;;;;3.76;100.00;102163.50;4965714;28;20201;-71
2024/01/28 10:44:06;;;;;;;11.30;4.90;;;;;;;3.86;100.00;102162.41;4968182;28;20256;-72
2024/01/28 10:46:41;;;;;;;6.67;4.07;;;;;;;3.89;100.00;102166.97;4967546;28;20242;-70
2024/01/28 10:49:09;;;;;;;9.53;4.90;;;;;;;4.01;100.00;102155.63;4969327;28;20232;-69
2024/01/28 10:51:38;;;;;;;9.23;4.87;;;;;;;4.07;100.00;102147.25;4967824;28;20594;-69
2024/01/28 10:54:09;;;;;;;12.90;4.57;;;;;;;4.21;100.00;102153.44;4967966;28;20201;-69
2024/01/28 10:56:37;;;;;;;10.27;4.53;;;;;;;4.28;100.00;102142.53;4966552;28;20197;-70
2024/01/28 10:59:04;;;;;;;12.80;4.80;;;;;;;4.34;100.00;102150.81;4967647;28;20209;-70
2024/01/28 11:01:33;;;;;;;10.70;4.93;;;;;;;4.46;100.00;102150.72;4960629;28;20246;-70
2024/01/28 11:04:01;;;;;;;13.93;4.73;;;;;;;4.62;100.00;102143.06;4965248;28;20219;-69
2024/01/28 11:06:29;;;;;;;10.43;4.30;;;;;;;4.53;100.00;102130.25;4964889;28;20646;-69
2024/01/28 11:08:57;;;;;;;9.77;4.50;;;;;;;4.59;100.00;102141.13;4961798;28;20284;-69
2024/01/28 11:11:24;;;;;;;10.13;4.40;;;;;;;4.77;100.00;102143.13;4965045;28;20209;-69
2024/01/28 11:13:50;;;;;;;7.43;4.63;;;;;;;4.82;100.00;102139.13;4965774;28;20213;-69
2024/01/28 11:16:19;;;;;;;8.00;4.77;;;;;;;4.86;100.00;102128.91;4965699;28;20229;-69